Austinburg, Ohio
Current Conditions -  °F | °C
As of 3:53 PM on Thursday 18 Dec 2014 (Local Time) from KHZY Reporting Station
Overcast Overcast  
Wind Chill: 22°   Ceiling: 1500
Heat Index: 30°   Visibility: 9mi
Dew Point: 25°   Wind: 8mph
Humidity: 82%   Direction: 270°W
Pressure: 30.14"   Gusts: NA
Location:  41.77°N, 80.85°W
Report Text: KHZY 182053Z AUTO 27007KT 9SM OVC015 M01/M04 A3014 RMK AO2 SNB15E24 SLP217 P0000 60000 T10111039 55001
Loading
Personal Weather Stations






























Interactive Weather Map New forecast layout! Learn more

10-Day Weather Forecast

Advertisements
Track Severe Weather on mobile